Time;durP1;ratioP1;P1;durP2;ratioP2;P2;SDS_P1;SDS_P2;PMS_P1;PMS_P2;Temp;Humidity;BMP_temperature;BMP_pressure;BME280_temperature;BME280_humidity;BME280_pressure;Samples;Min_cycle;Max_cycle;Signal;HPM_P1;HPM_P2
2023/01/25 00:00:04;;;;;;;;;;;;;;;;;;1036684;28;3712;-47
2023/01/25 00:00:36;;;;;;;;;;;;;;;;;;1035975;28;2841;-47
2023/01/25 00:01:26;;;;;;;;;;;;;;;;;;1033090;28;3910;-49
2023/01/25 00:01:57;;;;;;;;;;;;;;;;;;1034314;28;3896;-50
2023/01/25 00:02:27;;;;;;;;;;;;;;;;;;1035828;28;2640;-48
2023/01/25 00:02:57;;;;;;;;;;;;;;;;;;1033265;28;4355;-50
2023/01/25 00:03:28;;;;;;;;;;;;;;;;;;1038036;28;2089;-47
2023/01/25 00:03:58;;;;;;;;;;;;;;;;;;1035614;28;4072;-47
2023/01/25 00:04:29;;;;;;;;;;;;;;;;;;1037900;28;2527;-49
2023/01/25 00:04:59;;;;;;;;;;;;;;;;;;1037572;28;4400;-46
2023/01/25 00:05:29;;;;;;;;;;;;;;;;;;1037573;28;1963;-45
2023/01/25 00:06:00;;;;;;;;;;;;;;;;;;1037798;28;4160;-47
2023/01/25 00:06:30;;;;;;;;;;;;;;;;;;1035969;28;2883;-47
2023/01/25 00:07:00;;;;;;;;;;;;;;;;;;1035980;28;4580;-48
2023/01/25 00:07:31;;;;;;;;;;;;;;;;;;1035741;28;2090;-45
2023/01/25 00:08:01;;;;;;;;;;;;;;;;;;1035349;28;3749;-46
2023/01/25 00:08:31;;;;;;;;;;;;;;;;;;1035252;28;2748;-46
2023/01/25 00:09:02;;;;;;;;;;;;;;;;;;1033981;28;4526;-45
2023/01/25 00:09:33;;;;;;;;;;;;;;;;;;1034353;28;2148;-48
2023/01/25 00:10:03;;;;;;;;;;;;;;;;;;1035259;28;3946;-45
2023/01/25 00:10:33;;;;;;;;;;;;;;;;;;1035745;28;1844;-45
2023/01/25 00:11:04;;;;;;;;;;;;;;;;;;1034157;28;3789;-46
2023/01/25 00:11:34;;;;;;;;;;;;;;;;;;1037017;28;3103;-48
2023/01/25 00:12:04;;;;;;;;;;;;;;;;;;1034050;28;3772;-47
2023/01/25 00:12:34;;;;;;;;;;;;;;;;;;1035535;28;2818;-47
2023/01/25 00:13:05;;;;;;;;;;;;;;;;;;1034876;28;3852;-46
2023/01/25 00:13:35;;;;;;;;;;;;;;;;;;1034927;28;2740;-45
2023/01/25 00:14:05;;;;;;;;;;;;;;;;;;1034163;28;3999;-48
2023/01/25 00:14:35;;;;;;;;;;;;;;;;;;1036622;28;2716;-45
2023/01/25 00:15:06;;;;;;;;;;;;;;;;;;1034055;28;3804;-46
2023/01/25 00:15:36;;;;;;;;;;;;;;;;;;1035177;28;2892;-47
2023/01/25 00:16:06;;;;;;;;;;;;;;;;;;1035111;28;3777;-46
2023/01/25 00:16:37;;;;;;;;;;;;;;;;;;1036020;28;2924;-47
2023/01/25 00:17:08;;;;;;;;;;;;;;;;;;1035350;28;3824;-48
2023/01/25 00:17:38;;;;;;;;;;;;;;;;;;1037090;28;2744;-46
2023/01/25 00:18:08;;;;;;;;;;;;;;;;;;1034256;28;4110;-47
2023/01/25 00:18:38;;;;;;;;;;;;;;;;;;1037553;28;2649;-49
2023/01/25 00:19:09;;;;;;;;;;;;;;;;;;1035262;28;4098;-46
2023/01/25 00:19:40;;;;;;;;;;;;;;;;;;1034759;28;2532;-49
2023/01/25 00:20:10;;;;;;;;;;;;;;;;;;1035244;28;4198;-45
2023/01/25 00:20:40;;;;;;;;;;;;;;;;;;1036315;28;4091;-47
2023/01/25 00:21:15;;;;;;;;;;;;;;;;;;1036766;28;4350;-45
2023/01/25 00:21:51;;;;;;;;;;;;;;;;;;1032958;28;4084;-46
2023/01/25 00:22:22;;;;;;;;;;;;;;;;;;1037063;28;2962;-44
2023/01/25 00:22:52;;;;;;;;;;;;;;;;;;1034023;28;4100;-49
2023/01/25 00:23:22;;;;;;;;;;;;;;;;;;1037669;28;1643;-47
2023/01/25 00:23:52;;;;;;;;;;;;;;;;;;1036382;28;4182;-47
2023/01/25 00:24:24;;;;;;;;;;;;;;;;;;1038493;28;1442;-49
2023/01/25 00:24:54;;;;;;;;;;;;;;;;;;1033515;28;3909;-46
2023/01/25 00:25:25;;;;;;;;;;;;;;;;;;1038042;28;1822;-46
2023/01/25 00:25:55;;;;;;;;;;;;;;;;;;1036170;28;3856;-50
2023/01/25 00:26:34;;;;;;;;;;;;;;;;;;1037890;28;2650;-46
2023/01/25 00:27:11;;;;;;;;;;;;;;;;;;1040346;28;4429;-48
2023/01/25 00:27:49;;;;;;;;;;;;;;;;;;1043060;28;4189;-45
2023/01/25 00:28:19;;;;;;;;;;;;;;;;;;1039111;28;1687;-49
2023/01/25 00:28:53;;;;;;;;;;;;;;;;;;1038449;28;3879;-45
2023/01/25 00:29:23;;;;;;;;;;;;;;;;;;1038342;28;2323;-47
2023/01/25 00:29:53;;;;;;;;;;;;;;;;;;1038705;28;4015;-45
2023/01/25 00:30:24;;;;;;;;;;;;;;;;;;1038610;28;1305;-44
2023/01/25 00:30:58;;;;;;;;;;;;;;;;;;1038993;28;3855;-46
2023/01/25 00:31:34;;;;;;;;;;;;;;;;;;1040922;28;2813;-49
2023/01/25 00:32:28;;;;;;;;;;;;;;;;;;1039747;28;3846;-47
2023/01/25 00:33:21;;;;;;;;;;;;;;;;;;1034918;28;4310;-48
2023/01/25 00:34:17;;;;;;;;;;;;;;;;;;1029528;28;4404;-49
2023/01/25 00:34:50;;;;;;;;;;;;;;;;;;1027370;28;4437;-44
2023/01/25 00:35:21;;;;;;;;;;;;;;;;;;1025899;28;2752;-48
2023/01/25 00:35:55;;;;;;;;;;;;;;;;;;1041237;28;4064;-46
2023/01/25 00:36:51;;;;;;;;;;;;;;;;;;1039564;28;2030;-45
2023/01/25 00:37:45;;;;;;;;;;;;;;;;;;1027511;28;4202;-45
2023/01/25 00:38:29;;;;;;;;;;;;;;;;;;1028033;28;5116;-48
2023/01/25 00:38:59;;;;;;;;;;;;;;;;;;1037992;28;3954;-45
2023/01/25 00:39:29;;;;;;;;;;;;;;;;;;1040935;28;2624;-48
2023/01/25 00:40:00;;;;;;;;;;;;;;;;;;1039794;28;3806;-47
2023/01/25 00:40:30;;;;;;;;;;;;;;;;;;1040085;28;1605;-48
2023/01/25 00:41:00;;;;;;;;;;;;;;;;;;1042064;28;4217;-48
2023/01/25 00:41:31;;;;;;;;;;;;;;;;;;1041235;28;2998;-47
2023/01/25 00:42:01;;;;;;;;;;;;;;;;;;1040186;28;4416;-49
2023/01/25 00:42:31;;;;;;;;;;;;;;;;;;1040147;28;2894;-47
2023/01/25 00:43:02;;;;;;;;;;;;;;;;;;1040467;28;3976;-46
2023/01/25 00:43:32;;;;;;;;;;;;;;;;;;1040378;28;2652;-46
2023/01/25 00:44:02;;;;;;;;;;;;;;;;;;1039795;28;4125;-45
2023/01/25 00:44:32;;;;;;;;;;;;;;;;;;1038816;28;2242;-49
2023/01/25 00:45:03;;;;;;;;;;;;;;;;;;1038619;28;3899;-47
2023/01/25 00:45:33;;;;;;;;;;;;;;;;;;1038377;28;2779;-46
2023/01/25 00:46:04;;;;;;;;;;;;;;;;;;1038794;28;4033;-46
2023/01/25 00:46:34;;;;;;;;;;;;;;;;;;1037802;28;2815;-45
2023/01/25 00:47:05;;;;;;;;;;;;;;;;;;1036590;28;3815;-46
2023/01/25 00:47:35;;;;;;;;;;;;;;;;;;1034322;28;1864;-45
2023/01/25 00:48:05;;;;;;;;;;;;;;;;;;1036918;28;3963;-47
2023/01/25 00:48:36;;;;;;;;;;;;;;;;;;1042088;28;1945;-46
2023/01/25 00:49:17;;;;;;;;;;;;;;;;;;1042687;28;3927;-48
2023/01/25 00:49:47;;;;;;;;;;;;;;;;;;1038309;28;3897;-45
2023/01/25 00:50:17;;;;;;;;;;;;;;;;;;1038636;28;2758;-47
2023/01/25 00:50:48;;;;;;;;;;;;;;;;;;1034155;28;4263;-46
2023/01/25 00:51:18;;;;;;;;;;;;;;;;;;1036288;28;2897;-46
2023/01/25 00:51:49;;;;;;;;;;;;;;;;;;1035183;28;4075;-49
2023/01/25 00:52:20;;;;;;;;;;;;;;;;;;1034228;28;2049;-48
2023/01/25 00:52:51;;;;;;;;;;;;;;;;;;1040777;28;3962;-45
2023/01/25 00:53:21;;;;;;;;;;;;;;;;;;1039079;28;1821;-47
2023/01/25 00:53:51;;;;;;;;;;;;;;;;;;1039572;28;3960;-48
2023/01/25 00:54:22;;;;;;;;;;;;;;;;;;1040228;28;3337;-46
2023/01/25 00:54:52;;;;;;;;;;;;;;;;;;1040163;28;4390;-47
2023/01/25 00:55:23;;;;;;;;;;;;;;;;;;1038464;28;1705;-49
2023/01/25 00:55:53;;;;;;;;;;;;;;;;;;1039145;28;4452;-46
2023/01/25 00:56:23;;;;;;;;;;;;;;;;;;1039217;28;1752;-47
2023/01/25 00:56:55;;;;;;;;;;;;;;;;;;1038754;28;3771;-46
2023/01/25 00:57:25;;;;;;;;;;;;;;;;;;1040384;28;2053;-46
2023/01/25 00:57:55;;;;;;;;;;;;;;;;;;1038456;28;3945;-47
2023/01/25 00:58:26;;;;;;;;;;;;;;;;;;1042471;28;2519;-47
2023/01/25 00:58:56;;;;;;;;;;;;;;;;;;1039382;28;3885;-47
2023/01/25 00:59:26;;;;;;;;;;;;;;;;;;1038462;28;1747;-47
2023/01/25 00:59:57;;;;;;;;;;;;;;;;;;1037986;28;3799;-45
2023/01/25 01:00:27;;;;;;;;;;;;;;;;;;1038678;28;1773;-45
2023/01/25 01:00:57;;;;;;;;;;;;;;;;;;1035975;28;3984;-51
2023/01/25 01:01:27;;;;;;;;;;;;;;;;;;1038612;28;1723;-46
2023/01/25 01:01:58;;;;;;;;;;;;;;;;;;1039286;28;3890;-47
2023/01/25 01:02:29;;;;;;;;;;;;;;;;;;1040552;28;2778;-49
2023/01/25 01:02:59;;;;;;;;;;;;;;;;;;1038245;28;4402;-46
2023/01/25 01:03:30;;;;;;;;;;;;;;;;;;1039877;28;4123;-47
2023/01/25 01:04:00;;;;;;;;;;;;;;;;;;1037972;28;3924;-46
2023/01/25 01:04:30;;;;;;;;;;;;;;;;;;1041323;28;2043;-45
2023/01/25 01:05:01;;;;;;;;;;;;;;;;;;1040606;28;3795;-46
2023/01/25 01:05:31;;;;;;;;;;;;;;;;;;1041320;28;2021;-45
2023/01/25 01:06:03;;;;;;;;;;;;;;;;;;1038793;28;3953;-47
2023/01/25 01:06:37;;;;;;;;;;;;;;;;;;1038955;28;2593;-48
2023/01/25 01:07:07;;;;;;;;;;;;;;;;;;1033709;28;4145;-45
2023/01/25 01:07:37;;;;;;;;;;;;;;;;;;1034450;28;2345;-48
2023/01/25 01:08:08;;;;;;;;;;;;;;;;;;1033323;28;4215;-51
2023/01/25 01:08:38;;;;;;;;;;;;;;;;;;1033346;28;2826;-47
2023/01/25 01:09:12;;;;;;;;;;;;;;;;;;1036806;28;3942;-49
2023/01/25 01:09:43;;;;;;;;;;;;;;;;;;1036931;28;2481;-50
2023/01/25 01:10:13;;;;;;;;;;;;;;;;;;1035955;28;4237;-46
2023/01/25 01:10:43;;;;;;;;;;;;;;;;;;1040303;28;2409;-47
2023/01/25 01:11:14;;;;;;;;;;;;;;;;;;1039336;28;3677;-49
2023/01/25 01:11:44;;;;;;;;;;;;;;;;;;1037976;28;4231;-44
2023/01/25 01:12:14;;;;;;;;;;;;;;;;;;1040223;28;1993;-49
2023/01/25 01:12:45;;;;;;;;;;;;;;;;;;1034722;28;3884;-46
2023/01/25 01:13:15;;;;;;;;;;;;;;;;;;1036918;28;2679;-47
2023/01/25 01:13:45;;;;;;;;;;;;;;;;;;1034582;28;3973;-51
2023/01/25 01:14:15;;;;;;;;;;;;;;;;;;1038441;28;1700;-47
2023/01/25 01:14:46;;;;;;;;;;;;;;;;;;1040372;28;4067;-45
2023/01/25 01:15:16;;;;;;;;;;;;;;;;;;1040473;28;3084;-47
2023/01/25 01:15:46;;;;;;;;;;;;;;;;;;1039477;28;4453;-46
2023/01/25 01:16:16;;;;;;;;;;;;;;;;;;1036786;28;2099;-48
2023/01/25 01:16:47;;;;;;;;;;;;;;;;;;1035261;28;4177;-48
2023/01/25 01:17:17;;;;;;;;;;;;;;;;;;1035745;28;2949;-46
2023/01/25 01:17:47;;;;;;;;;;;;;;;;;;1035233;28;3888;-49
2023/01/25 01:18:17;;;;;;;;;;;;;;;;;;1039978;28;2811;-45
2023/01/25 01:18:48;;;;;;;;;;;;;;;;;;1039576;28;3899;-46
2023/01/25 01:19:18;;;;;;;;;;;;;;;;;;1039852;28;2027;-47
2023/01/25 01:19:48;;;;;;;;;;;;;;;;;;1039005;28;3964;-46
2023/01/25 01:20:19;;;;;;;;;;;;;;;;;;1037843;28;3002;-49
2023/01/25 01:20:52;;;;;;;;;;;;;;;;;;1039296;28;4148;-46
2023/01/25 01:21:23;;;;;;;;;;;;;;;;;;1040284;28;2320;-49
2023/01/25 01:22:00;;;;;;;;;;;;;;;;;;1041143;28;4450;-48
2023/01/25 01:22:30;;;;;;;;;;;;;;;;;;1039048;28;2476;-48
2023/01/25 01:23:00;;;;;;;;;;;;;;;;;;1039937;28;4447;-48
2023/01/25 01:23:31;;;;;;;;;;;;;;;;;;1039679;28;2688;-47
2023/01/25 01:24:01;;;;;;;;;;;;;;;;;;1038803;28;3807;-46
2023/01/25 01:24:31;;;;;;;;;;;;;;;;;;1038892;28;2846;-48
2023/01/25 01:25:02;;;;;;;;;;;;;;;;;;1041265;28;4075;-48
2023/01/25 01:25:32;;;;;;;;;;;;;;;;;;1038895;28;2663;-46
2023/01/25 01:26:04;;;;;;;;;;;;;;;;;;1038701;28;4105;-47
2023/01/25 01:26:40;;;;;;;;;;;;;;;;;;1040343;28;2023;-46
2023/01/25 01:27:17;;;;;;;;;;;;;;;;;;1039692;28;3986;-48
2023/01/25 01:27:48;;;;;;;;;;;;;;;;;;1038414;28;3813;-49
2023/01/25 01:28:18;;;;;;;;;;;;;;;;;;1040827;28;2676;-47
2023/01/25 01:28:48;;;;;;;;;;;;;;;;;;1038246;28;3837;-45
2023/01/25 01:29:18;;;;;;;;;;;;;;;;;;1039688;28;2344;-48
2023/01/25 01:29:49;;;;;;;;;;;;;;;;;;1038977;28;3785;-47
2023/01/25 01:30:19;;;;;;;;;;;;;;;;;;1041084;28;2664;-47
2023/01/25 01:30:49;;;;;;;;;;;;;;;;;;1040551;28;4403;-49
2023/01/25 01:31:21;;;;;;;;;;;;;;;;;;1039765;28;1954;-45
2023/01/25 01:31:52;;;;;;;;;;;;;;;;;;1040481;28;4080;-52
2023/01/25 01:32:22;;;;;;;;;;;;;;;;;;1041376;28;2946;-46
2023/01/25 01:32:53;;;;;;;;;;;;;;;;;;1040874;28;4253;-46
2023/01/25 01:33:23;;;;;;;;;;;;;;;;;;1041715;28;2375;-45
2023/01/25 01:33:55;;;;;;;;;;;;;;;;;;1040644;28;4364;-47
2023/01/25 01:34:25;;;;;;;;;;;;;;;;;;1036052;28;1775;-50
2023/01/25 01:34:56;;;;;;;;;;;;;;;;;;1035535;28;3808;-48
2023/01/25 01:35:27;;;;;;;;;;;;;;;;;;1037665;28;2701;-46
2023/01/25 01:35:57;;;;;;;;;;;;;;;;;;1034916;28;4026;-47
2023/01/25 01:36:28;;;;;;;;;;;;;;;;;;1041652;28;1947;-48
2023/01/25 01:36:58;;;;;;;;;;;;;;;;;;1043347;28;4050;-47
2023/01/25 01:37:29;;;;;;;;;;;;;;;;;;1040514;28;2674;-45
2023/01/25 01:37:59;;;;;;;;;;;;;;;;;;1040569;28;4439;-46
2023/01/25 01:38:29;;;;;;;;;;;;;;;;;;1041128;28;2028;-45
2023/01/25 01:39:00;;;;;;;;;;;;;;;;;;1038989;28;4043;-46
2023/01/25 01:39:30;;;;;;;;;;;;;;;;;;1042129;28;2687;-45
2023/01/25 01:40:00;;;;;;;;;;;;;;;;;;1038817;28;3905;-46
2023/01/25 01:40:30;;;;;;;;;;;;;;;;;;1036464;28;2700;-47
2023/01/25 01:41:01;;;;;;;;;;;;;;;;;;1038066;28;3807;-47
2023/01/25 01:41:31;;;;;;;;;;;;;;;;;;1039035;28;2044;-45
2023/01/25 01:42:01;;;;;;;;;;;;;;;;;;1038987;28;3937;-47
2023/01/25 01:42:32;;;;;;;;;;;;;;;;;;1040620;28;1652;-47
2023/01/25 01:43:04;;;;;;;;;;;;;;;;;;1039759;28;3958;-46
2023/01/25 01:43:34;;;;;;;;;;;;;;;;;;1040685;28;2696;-47
2023/01/25 01:44:04;;;;;;;;;;;;;;;;;;1041300;28;4268;-47
2023/01/25 01:45:01;;;;;;;;;;;;;;;;;;1039661;28;2731;-45
2023/01/25 01:45:47;;;;;;;;;;;;;;;;;;1038095;28;3989;-46
2023/01/25 01:46:23;;;;;;;;;;;;;;;;;;1039919;28;4025;-48
2023/01/25 01:46:55;;;;;;;;;;;;;;;;;;1040493;28;4049;-47
2023/01/25 01:47:38;;;;;;;;;;;;;;;;;;1039853;28;2654;-47
2023/01/25 01:48:18;;;;;;;;;;;;;;;;;;1041352;28;3969;-46
2023/01/25 01:48:53;;;;;;;;;;;;;;;;;;1042143;28;4592;-47
2023/01/25 01:49:28;;;;;;;;;;;;;;;;;;1042891;28;1975;-49
2023/01/25 01:50:01;;;;;;;;;;;;;;;;;;1042812;28;3912;-46
2023/01/25 01:50:31;;;;;;;;;;;;;;;;;;1043345;28;1653;-47
2023/01/25 01:51:09;;;;;;;;;;;;;;;;;;1042390;28;3770;-47
2023/01/25 01:51:39;;;;;;;;;;;;;;;;;;1043000;28;2251;-50
2023/01/25 01:52:12;;;;;;;;;;;;;;;;;;1043198;28;3718;-46
2023/01/25 01:52:42;;;;;;;;;;;;;;;;;;1041419;28;2664;-50
2023/01/25 01:53:12;;;;;;;;;;;;;;;;;;1040165;28;5253;-49
2023/01/25 01:53:54;;;;;;;;;;;;;;;;;;1039936;28;1921;-47
2023/01/25 01:54:30;;;;;;;;;;;;;;;;;;1040225;28;3953;-46
2023/01/25 01:55:07;;;;;;;;;;;;;;;;;;1041361;28;4075;-49
2023/01/25 01:55:37;;;;;;;;;;;;;;;;;;1042513;28;2981;-48
2023/01/25 01:56:10;;;;;;;;;;;;;;;;;;1039314;28;3799;-46
2023/01/25 01:57:01;;;;;;;;;;;;;;;;;;1040585;28;4074;-47
2023/01/25 01:57:36;;;;;;;;;;;;;;;;;;1042078;28;3696;-47
2023/01/25 01:58:06;;;;;;;;;;;;;;;;;;1039030;28;3741;-45
2023/01/25 01:58:37;;;;;;;;;;;;;;;;;;1040836;28;2448;-45
2023/01/25 01:59:08;;;;;;;;;;;;;;;;;;1040159;28;4534;-45
2023/01/25 02:00:11;;;;;;;;;;;;;;;;;;1039976;28;1795;-46
2023/01/25 02:00:41;;;;;;;;;;;;;;;;;;1033188;28;3941;-49
2023/01/25 02:01:11;;;;;;;;;;;;;;;;;;1029846;28;3941;-45
2023/01/25 02:01:42;;;;;;;;;;;;;;;;;;1035965;28;1815;-47
2023/01/25 02:02:13;;;;;;;;;;;;;;;;;;1040066;28;3884;-47
2023/01/25 02:02:45;;;;;;;;;;;;;;;;;;1040222;28;4504;-47
2023/01/25 02:03:15;;;;;;;;;;;;;;;;;;1040100;28;3895;-46
2023/01/25 02:03:46;;;;;;;;;;;;;;;;;;1037531;28;3985;-47
2023/01/25 02:04:18;;;;;;;;;;;;;;;;;;1042428;28;2018;-45
2023/01/25 02:04:48;;;;;;;;;;;;;;;;;;1042622;28;4043;-48
2023/01/25 02:05:37;;;;;;;;;;;;;;;;;;1041451;28;1403;-52
2023/01/25 02:06:24;;;;;;;;;;;;;;;;;;1039731;28;3750;-46
2023/01/25 02:07:00;;;;;;;;;;;;;;;;;;1040709;28;4144;-47
2023/01/25 02:07:32;;;;;;;;;;;;;;;;;;1042544;28;2495;-46
2023/01/25 02:08:04;;;;;;;;;;;;;;;;;;1038628;28;3956;-46
2023/01/25 02:08:35;;;;;;;;;;;;;;;;;;1042260;28;1713;-48
2023/01/25 02:09:06;;;;;;;;;;;;;;;;;;1039260;28;3909;-48
2023/01/25 02:09:36;;;;;;;;;;;;;;;;;;1036695;28;1974;-45
2023/01/25 02:10:08;;;;;;;;;;;;;;;;;;1035772;28;4105;-45
2023/01/25 02:10:39;;;;;;;;;;;;;;;;;;1036542;28;2168;-45
2023/01/25 02:11:10;;;;;;;;;;;;;;;;;;1036397;28;3814;-47
2023/01/25 02:11:41;;;;;;;;;;;;;;;;;;1039775;28;2175;-47
2023/01/25 02:12:11;;;;;;;;;;;;;;;;;;1040766;28;3809;-45
2023/01/25 02:12:42;;;;;;;;;;;;;;;;;;1041496;28;2733;-49
2023/01/25 02:13:13;;;;;;;;;;;;;;;;;;1041073;28;4001;-49
2023/01/25 02:13:43;;;;;;;;;;;;;;;;;;1041200;28;2043;-47
2023/01/25 02:14:13;;;;;;;;;;;;;;;;;;1039787;28;3791;-49
2023/01/25 02:14:48;;;;;;;;;;;;;;;;;;1039518;28;2665;-46
2023/01/25 02:15:18;;;;;;;;;;;;;;;;;;1041531;28;3910;-47
2023/01/25 02:15:49;;;;;;;;;;;;;;;;;;1041299;28;3789;-49
2023/01/25 02:16:23;;;;;;;;;;;;;;;;;;1040780;28;1676;-49
2023/01/25 02:16:53;;;;;;;;;;;;;;;;;;1039332;28;4156;-48
2023/01/25 02:17:28;;;;;;;;;;;;;;;;;;1041063;28;2271;-48
2023/01/25 02:17:58;;;;;;;;;;;;;;;;;;1039421;28;3826;-47
2023/01/25 02:18:30;;;;;;;;;;;;;;;;;;1040901;28;2859;-46
2023/01/25 02:19:02;;;;;;;;;;;;;;;;;;1039825;28;3794;-47
2023/01/25 02:19:52;;;;;;;;;;;;;;;;;;1039852;28;1952;-49
2023/01/25 02:20:27;;;;;;;;;;;;;;;;;;1041904;28;3862;-50
2023/01/25 02:21:04;;;;;;;;;;;;;;;;;;1038282;28;3817;-47
2023/01/25 02:21:39;;;;;;;;;;;;;;;;;;1039916;28;1767;-48
2023/01/25 02:22:15;;;;;;;;;;;;;;;;;;1034084;28;3719;-49
2023/01/25 02:23:05;;;;;;;;;;;;;;;;;;1034762;28;3777;-48
2023/01/25 02:23:35;;;;;;;;;;;;;;;;;;1035628;28;1849;-48
2023/01/25 02:24:11;;;;;;;;;;;;;;;;;;1037659;28;3737;-47
2023/01/25 02:24:46;;;;;;;;;;;;;;;;;;1041362;28;2014;-46
2023/01/25 02:25:16;;;;;;;;;;;;;;;;;;1040844;28;3888;-48
2023/01/25 02:25:47;;;;;;;;;;;;;;;;;;1039013;28;3900;-47
2023/01/25 02:26:18;;;;;;;;;;;;;;;;;;1039782;28;3104;-46
2023/01/25 02:26:54;;;;;;;;;;;;;;;;;;1038450;28;4382;-47
2023/01/25 02:27:32;;;;;;;;;;;;;;;;;;1035640;28;2592;-48
2023/01/25 02:28:28;;;;;;;;;;;;;;;;;;1036148;28;3769;-49
2023/01/25 02:29:01;;;;;;;;;;;;;;;;;;1038818;28;4052;-48
2023/01/25 02:29:32;;;;;;;;;;;;;;;;;;1042517;28;2074;-49
2023/01/25 02:30:02;;;;;;;;;;;;;;;;;;1041150;28;3788;-48
2023/01/25 02:30:33;;;;;;;;;;;;;;;;;;1036424;28;2481;-48
2023/01/25 02:31:03;;;;;;;;;;;;;;;;;;1038851;28;4196;-49
2023/01/25 02:31:33;;;;;;;;;;;;;;;;;;1037421;28;2177;-48
2023/01/25 02:32:05;;;;;;;;;;;;;;;;;;1036150;28;3992;-48
2023/01/25 02:32:35;;;;;;;;;;;;;;;;;;1039479;28;1864;-51
2023/01/25 02:33:05;;;;;;;;;;;;;;;;;;1041004;28;3961;-46
2023/01/25 02:33:36;;;;;;;;;;;;;;;;;;1041168;28;2109;-49
2023/01/25 02:34:06;;;;;;;;;;;;;;;;;;1040164;28;4360;-48
2023/01/25 02:34:36;;;;;;;;;;;;;;;;;;1036857;28;2564;-46
2023/01/25 02:35:07;;;;;;;;;;;;;;;;;;1036196;28;3776;-47
2023/01/25 02:35:39;;;;;;;;;;;;;;;;;;1036965;28;2258;-46
2023/01/25 02:36:10;;;;;;;;;;;;;;;;;;1039239;28;3993;-48
2023/01/25 02:36:40;;;;;;;;;;;;;;;;;;1039806;28;1791;-50
2023/01/25 02:37:13;;;;;;;;;;;;;;;;;;1035627;28;4561;-50
2023/01/25 02:37:43;;;;;;;;;;;;;;;;;;1037055;28;2701;-47
2023/01/25 02:38:14;;;;;;;;;;;;;;;;;;1037934;28;3894;-47
2023/01/25 02:38:57;;;;;;;;;;;;;;;;;;1041722;28;4216;-48
2023/01/25 02:39:27;;;;;;;;;;;;;;;;;;1041561;28;2697;-46
2023/01/25 02:39:57;;;;;;;;;;;;;;;;;;1039633;28;3818;-50
2023/01/25 02:40:30;;;;;;;;;;;;;;;;;;1038866;28;1884;-48
2023/01/25 02:41:05;;;;;;;;;;;;;;;;;;1039765;28;3963;-46
2023/01/25 02:41:38;;;;;;;;;;;;;;;;;;1040108;28;2768;-49
2023/01/25 02:42:08;;;;;;;;;;;;;;;;;;1039326;28;4608;-49
2023/01/25 02:42:40;;;;;;;;;;;;;;;;;;1038798;28;2179;-47
2023/01/25 02:43:11;;;;;;;;;;;;;;;;;;1039203;28;3892;-47
2023/01/25 02:43:41;;;;;;;;;;;;;;;;;;1041970;28;2901;-47
2023/01/25 02:44:13;;;;;;;;;;;;;;;;;;1040734;28;4009;-47
2023/01/25 02:44:44;;;;;;;;;;;;;;;;;;1035940;28;2627;-48
2023/01/25 02:45:16;;;;;;;;;;;;;;;;;;1037391;28;3571;-46
2023/01/25 02:45:51;;;;;;;;;;;;;;;;;;1034626;28;4000;-46
2023/01/25 02:46:26;;;;;;;;;;;;;;;;;;1037623;28;2768;-46
2023/01/25 02:46:57;;;;;;;;;;;;;;;;;;1039289;28;3813;-47
2023/01/25 02:47:27;;;;;;;;;;;;;;;;;;1041498;28;3560;-47
2023/01/25 02:47:58;;;;;;;;;;;;;;;;;;1038132;28;4035;-47
2023/01/25 02:48:28;;;;;;;;;;;;;;;;;;1042264;28;2693;-47
2023/01/25 02:48:59;;;;;;;;;;;;;;;;;;1039883;28;4074;-47
2023/01/25 02:49:29;;;;;;;;;;;;;;;;;;1042727;28;2585;-47
2023/01/25 02:49:59;;;;;;;;;;;;;;;;;;1041971;28;3792;-48
2023/01/25 02:50:29;;;;;;;;;;;;;;;;;;1039999;28;2946;-50
2023/01/25 02:51:00;;;;;;;;;;;;;;;;;;1039269;28;3883;-50
2023/01/25 02:51:31;;;;;;;;;;;;;;;;;;1039142;28;2825;-51
2023/01/25 02:52:02;;;;;;;;;;;;;;;;;;1041778;28;4423;-47
2023/01/25 02:52:32;;;;;;;;;;;;;;;;;;1038811;28;1745;-48
2023/01/25 02:53:02;;;;;;;;;;;;;;;;;;1038940;28;4256;-48
2023/01/25 02:53:32;;;;;;;;;;;;;;;;;;1041538;28;2857;-47
2023/01/25 02:54:04;;;;;;;;;;;;;;;;;;1039054;28;3786;-49
2023/01/25 02:54:34;;;;;;;;;;;;;;;;;;1039677;28;2526;-47
2023/01/25 02:55:05;;;;;;;;;;;;;;;;;;1039997;28;4191;-49
2023/01/25 02:55:35;;;;;;;;;;;;;;;;;;1039853;28;2416;-48
2023/01/25 02:56:05;;;;;;;;;;;;;;;;;;1039035;28;3913;-46
2023/01/25 02:56:36;;;;;;;;;;;;;;;;;;1042120;28;2413;-50
2023/01/25 02:57:06;;;;;;;;;;;;;;;;;;1041094;28;4226;-48
2023/01/25 02:57:37;;;;;;;;;;;;;;;;;;1041089;28;2741;-48
2023/01/25 02:58:07;;;;;;;;;;;;;;;;;;1040785;28;4364;-48
2023/01/25 02:58:37;;;;;;;;;;;;;;;;;;1040441;28;2782;-48
2023/01/25 02:59:08;;;;;;;;;;;;;;;;;;1040279;28;4298;-51
2023/01/25 02:59:39;;;;;;;;;;;;;;;;;;1040405;28;2785;-49
2023/01/25 03:00:09;;;;;;;;;;;;;;;;;;1039674;28;4043;-48
2023/01/25 03:00:40;;;;;;;;;;;;;;;;;;1039804;28;1800;-49
2023/01/25 03:01:11;;;;;;;;;;;;;;;;;;1038416;28;3968;-47
2023/01/25 03:01:42;;;;;;;;;;;;;;;;;;1040460;28;2702;-50
2023/01/25 03:02:12;;;;;;;;;;;;;;;;;;1039413;28;4012;-48
2023/01/25 03:02:43;;;;;;;;;;;;;;;;;;1039610;28;1582;-50
2023/01/25 03:03:13;;;;;;;;;;;;;;;;;;1038664;28;3881;-49
2023/01/25 03:03:43;;;;;;;;;;;;;;;;;;1041511;28;2802;-48
2023/01/25 03:04:14;;;;;;;;;;;;;;;;;;1041364;28;4094;-50
2023/01/25 03:04:44;;;;;;;;;;;;;;;;;;1038050;28;4389;-47
2023/01/25 03:05:15;;;;;;;;;;;;;;;;;;1038718;28;1796;-47
2023/01/25 03:05:45;;;;;;;;;;;;;;;;;;1035765;28;4137;-47
2023/01/25 03:06:15;;;;;;;;;;;;;;;;;;1034940;28;2131;-47
2023/01/25 03:06:46;;;;;;;;;;;;;;;;;;1040215;28;4036;-48
2023/01/25 03:07:16;;;;;;;;;;;;;;;;;;1040958;28;2830;-47
2023/01/25 03:07:47;;;;;;;;;;;;;;;;;;1037521;28;3791;-47
2023/01/25 03:08:17;;;;;;;;;;;;;;;;;;1041272;28;1840;-47
2023/01/25 03:08:47;;;;;;;;;;;;;;;;;;1039576;28;4072;-49
2023/01/25 03:09:17;;;;;;;;;;;;;;;;;;1039583;28;1726;-49
2023/01/25 03:09:48;;;;;;;;;;;;;;;;;;1039568;28;4766;-48
2023/01/25 03:10:18;;;;;;;;;;;;;;;;;;1042070;28;1379;-46
2023/01/25 03:10:48;;;;;;;;;;;;;;;;;;1040457;28;4152;-49
2023/01/25 03:11:18;;;;;;;;;;;;;;;;;;1030170;28;2658;-48
2023/01/25 03:11:49;;;;;;;;;;;;;;;;;;1031687;28;4118;-48
2023/01/25 03:12:19;;;;;;;;;;;;;;;;;;1032019;28;2908;-48
2023/01/25 03:12:49;;;;;;;;;;;;;;;;;;1029847;28;4234;-48
2023/01/25 03:13:20;;;;;;;;;;;;;;;;;;1041165;28;2843;-46
2023/01/25 03:13:50;;;;;;;;;;;;;;;;;;1040982;28;4011;-48
2023/01/25 03:14:20;;;;;;;;;;;;;;;;;;1039397;28;2650;-48
2023/01/25 03:14:50;;;;;;;;;;;;;;;;;;1039357;28;3803;-49
2023/01/25 03:15:21;;;;;;;;;;;;;;;;;;1039218;28;2628;-46
2023/01/25 03:15:52;;;;;;;;;;;;;;;;;;1039302;28;3991;-49
2023/01/25 03:16:22;;;;;;;;;;;;;;;;;;1040076;28;2296;-51
2023/01/25 03:16:52;;;;;;;;;;;;;;;;;;1039044;28;3891;-49
2023/01/25 03:17:23;;;;;;;;;;;;;;;;;;1041201;28;2079;-49
2023/01/25 03:17:54;;;;;;;;;;;;;;;;;;1039479;28;4072;-48
2023/01/25 03:18:25;;;;;;;;;;;;;;;;;;1040373;28;2657;-48
2023/01/25 03:18:55;;;;;;;;;;;;;;;;;;1042030;28;4042;-46
2023/01/25 03:19:25;;;;;;;;;;;;;;;;;;1040504;28;2702;-48
2023/01/25 03:19:55;;;;;;;;;;;;;;;;;;1041215;28;3931;-48
2023/01/25 03:20:26;;;;;;;;;;;;;;;;;;1040923;28;2837;-47
2023/01/25 03:21:02;;;;;;;;;;;;;;;;;;1041292;28;3860;-48
2023/01/25 03:21:39;;;;;;;;;;;;;;;;;;1040872;28;2641;-47
2023/01/25 03:22:09;;;;;;;;;;;;;;;;;;1038989;28;4009;-47
2023/01/25 03:22:40;;;;;;;;;;;;;;;;;;1041965;28;2987;-45
2023/01/25 03:23:10;;;;;;;;;;;;;;;;;;1039671;28;3775;-46
2023/01/25 03:23:41;;;;;;;;;;;;;;;;;;1039394;28;2677;-49
2023/01/25 03:24:11;;;;;;;;;;;;;;;;;;1042556;28;3892;-46
2023/01/25 03:24:41;;;;;;;;;;;;;;;;;;1042372;28;2521;-46
2023/01/25 03:25:12;;;;;;;;;;;;;;;;;;1041938;28;3898;-48
2023/01/25 03:25:42;;;;;;;;;;;;;;;;;;1041573;28;2223;-49
2023/01/25 03:26:12;;;;;;;;;;;;;;;;;;1040182;28;3898;-47
2023/01/25 03:27:44;;;;;;;;;;;;;;;;;;1043075;28;5549;-46
2023/01/25 03:28:21;;;;;;;;;;;;;;;;;;1040382;28;3908;-49
2023/01/25 03:28:52;;;;;;;;;;;;;;;;;;1041334;28;4271;-48
2023/01/25 03:29:22;;;;;;;;;;;;;;;;;;1040097;28;2421;-49
2023/01/25 03:29:52;;;;;;;;;;;;;;;;;;1039448;28;3963;-50
2023/01/25 03:30:23;;;;;;;;;;;;;;;;;;1040231;28;2230;-47
2023/01/25 03:30:53;;;;;;;;;;;;;;;;;;1038801;28;4365;-49
2023/01/25 03:31:23;;;;;;;;;;;;;;;;;;1040908;28;2832;-47
2023/01/25 03:31:53;;;;;;;;;;;;;;;;;;1037804;28;4430;-48
2023/01/25 03:32:24;;;;;;;;;;;;;;;;;;1040006;28;2732;-47
2023/01/25 03:32:54;;;;;;;;;;;;;;;;;;1041397;28;3811;-46
2023/01/25 03:33:24;;;;;;;;;;;;;;;;;;1040266;28;2596;-49
2023/01/25 03:33:55;;;;;;;;;;;;;;;;;;1038939;28;4499;-46
2023/01/25 03:34:25;;;;;;;;;;;;;;;;;;1040131;28;2712;-47
2023/01/25 03:34:55;;;;;;;;;;;;;;;;;;1040203;28;3995;-49
2023/01/25 03:35:25;;;;;;;;;;;;;;;;;;1039058;28;3049;-51
2023/01/25 03:35:56;;;;;;;;;;;;;;;;;;1041475;28;4439;-48
2023/01/25 03:36:26;;;;;;;;;;;;;;;;;;1040313;28;2558;-46
2023/01/25 03:36:56;;;;;;;;;;;;;;;;;;1039235;28;4783;-46
2023/01/25 03:37:29;;;;;;;;;;;;;;;;;;1040340;28;2731;-51
2023/01/25 03:37:59;;;;;;;;;;;;;;;;;;1040454;28;4404;-46
2023/01/25 03:38:29;;;;;;;;;;;;;;;;;;1040040;28;2806;-47
2023/01/25 03:38:59;;;;;;;;;;;;;;;;;;1039572;28;4009;-49
2023/01/25 03:39:30;;;;;;;;;;;;;;;;;;1038666;28;2755;-48
2023/01/25 03:40:00;;;;;;;;;;;;;;;;;;1040825;28;4069;-47
2023/01/25 03:40:30;;;;;;;;;;;;;;;;;;1039573;28;1982;-48
2023/01/25 03:41:01;;;;;;;;;;;;;;;;;;1040129;28;4048;-49
2023/01/25 03:41:31;;;;;;;;;;;;;;;;;;1040423;28;2828;-46
2023/01/25 03:42:01;;;;;;;;;;;;;;;;;;1040003;28;4107;-48
2023/01/25 03:42:32;;;;;;;;;;;;;;;;;;1040789;28;2767;-46
2023/01/25 03:43:02;;;;;;;;;;;;;;;;;;1040460;28;5566;-46